createdAt,value
2018-12-07T00:01:48.070Z,87.40
2018-12-07T00:04:16.488Z,87.30
2018-12-07T00:06:44.966Z,87.10
2018-12-07T00:09:14.045Z,86.90
2018-12-07T00:11:42.496Z,87.50
2018-12-07T00:14:10.980Z,87.50
2018-12-07T00:16:39.453Z,87.70
2018-12-07T00:19:07.923Z,87.80
2018-12-07T00:21:36.367Z,87.90
2018-12-07T00:24:05.011Z,87.80
2018-12-07T00:26:33.606Z,88.20
2018-12-07T00:29:02.052Z,88.40
2018-12-07T00:31:31.600Z,88.30
2018-12-07T00:34:00.177Z,88.10
2018-12-07T00:36:28.607Z,87.90
2018-12-07T00:38:57.120Z,87.60
2018-12-07T00:41:25.592Z,87.30
2018-12-07T00:43:54.048Z,87.00
2018-12-07T00:46:22.514Z,86.90
2018-12-07T00:48:50.992Z,87.00
2018-12-07T00:51:19.457Z,86.70
2018-12-07T00:53:47.873Z,86.70
2018-12-07T00:56:16.356Z,86.90
2018-12-07T00:58:44.811Z,87.00
2018-12-07T01:01:13.329Z,87.00
2018-12-07T01:03:41.773Z,87.20
2018-12-07T01:06:10.362Z,87.60
2018-12-07T01:08:38.811Z,87.70
2018-12-07T01:11:07.523Z,87.50
2018-12-07T01:13:35.992Z,87.30
2018-12-07T01:16:04.491Z,87.20
2018-12-07T01:18:32.919Z,87.20
2018-12-07T01:21:01.471Z,87.30
2018-12-07T01:23:29.887Z,87.10
2018-12-07T01:25:58.319Z,86.90
2018-12-07T01:28:26.784Z,86.70
2018-12-07T01:30:55.272Z,86.50
2018-12-07T01:33:23.724Z,86.70
2018-12-07T01:35:52.168Z,86.60
2018-12-07T01:38:20.722Z,86.50
2018-12-07T01:40:49.188Z,86.70
2018-12-07T01:43:17.656Z,86.50
2018-12-07T01:45:46.080Z,86.50
2018-12-07T01:48:14.497Z,86.50
2018-12-07T01:50:43.019Z,86.40
2018-12-07T01:53:11.606Z,86.30
2018-12-07T01:55:40.068Z,86.30
2018-12-07T01:58:08.492Z,86.40
2018-12-07T02:00:37.032Z,86.40
2018-12-07T02:03:05.492Z,86.60
2018-12-07T02:05:33.948Z,86.70
2018-12-07T02:08:02.463Z,86.50
2018-12-07T02:10:30.892Z,86.50
2018-12-07T02:12:59.363Z,86.60
2018-12-07T02:15:27.829Z,86.90
2018-12-07T02:17:56.295Z,87.20
2018-12-07T02:20:24.775Z,87.40
2018-12-07T02:22:53.195Z,87.70
2018-12-07T02:25:21.651Z,87.60
2018-12-07T02:27:55.456Z,87.80
2018-12-07T02:30:23.924Z,88.10
2018-12-07T02:32:52.408Z,87.50
2018-12-07T02:35:20.873Z,87.30
2018-12-07T02:37:49.309Z,87.90
2018-12-07T02:40:17.749Z,87.10
2018-12-07T02:42:46.222Z,86.90
2018-12-07T02:45:14.657Z,87.80
2018-12-07T02:47:43.107Z,86.70
2018-12-07T02:50:11.385Z,86.70
2018-12-07T02:52:39.836Z,87.00
2018-12-07T02:55:08.427Z,87.30
2018-12-07T02:57:36.951Z,87.30
2018-12-07T03:00:06.932Z,87.10
2018-12-07T03:02:35.392Z,87.30
2018-12-07T03:05:04.348Z,88.30
2018-12-07T03:07:32.811Z,87.70
2018-12-07T03:10:01.266Z,88.00
2018-12-07T03:12:29.716Z,88.00
2018-12-07T03:14:58.187Z,88.20
2018-12-07T03:17:26.629Z,88.20
2018-12-07T03:19:55.103Z,88.10
2018-12-07T03:22:23.539Z,88.30
2018-12-07T03:24:52.039Z,88.10
2018-12-07T03:27:20.468Z,88.10
2018-12-07T03:29:48.907Z,87.90
2018-12-07T03:32:17.436Z,87.80
2018-12-07T03:34:45.937Z,87.60
2018-12-07T03:37:14.504Z,87.60
2018-12-07T03:39:42.967Z,87.40
2018-12-07T03:42:12.219Z,87.20
2018-12-07T03:44:40.647Z,87.20
2018-12-07T03:47:09.273Z,87.20
2018-12-07T03:49:37.818Z,87.30
2018-12-07T03:52:06.447Z,87.40
2018-12-07T03:54:34.889Z,87.40
2018-12-07T03:57:03.344Z,87.30
2018-12-07T03:59:31.819Z,87.10
2018-12-07T04:02:00.327Z,86.90
2018-12-07T04:04:28.751Z,86.80
2018-12-07T04:06:57.180Z,86.70
2018-12-07T04:09:25.624Z,86.50
2018-12-07T04:11:54.039Z,86.50
2018-12-07T04:14:22.510Z,86.40
2018-12-07T04:16:51.710Z,86.50
2018-12-07T04:19:20.843Z,86.70
2018-12-07T04:21:49.260Z,87.00
2018-12-07T04:24:17.740Z,86.80
2018-12-07T04:26:46.155Z,86.80
2018-12-07T04:29:14.621Z,87.30
2018-12-07T04:31:43.609Z,87.30
2018-12-07T04:34:12.140Z,87.20
2018-12-07T04:36:40.622Z,86.90
2018-12-07T04:39:09.036Z,87.20
2018-12-07T04:41:37.472Z,87.30
2018-12-07T04:44:05.958Z,87.60
2018-12-07T04:46:34.519Z,87.40
2018-12-07T04:49:02.962Z,87.70
2018-12-07T04:51:31.405Z,87.60
2018-12-07T04:53:59.827Z,87.60
2018-12-07T04:56:28.289Z,87.50
2018-12-07T04:58:56.753Z,87.80
2018-12-07T05:01:25.297Z,87.60
2018-12-07T05:03:53.760Z,87.90
2018-12-07T05:06:22.259Z,88.10
2018-12-07T05:08:50.697Z,88.80
2018-12-07T05:11:19.167Z,88.20
2018-12-07T05:13:47.673Z,87.90
2018-12-07T05:16:17.199Z,87.90
2018-12-07T05:18:45.693Z,88.00
2018-12-07T05:21:14.291Z,88.80
2018-12-07T05:23:42.821Z,88.10
2018-12-07T05:26:11.337Z,88.30
2018-12-07T05:28:39.796Z,88.70
2018-12-07T05:31:08.284Z,88.40
2018-12-07T05:33:36.776Z,88.10
2018-12-07T05:36:05.236Z,87.50
2018-12-07T05:38:33.735Z,88.70
2018-12-07T05:41:02.188Z,89.00
2018-12-07T05:43:30.714Z,89.10
2018-12-07T05:45:59.147Z,88.80
2018-12-07T05:48:27.716Z,88.60
2018-12-07T05:50:56.132Z,88.70
2018-12-07T05:53:24.548Z,89.20
2018-12-07T05:55:53.024Z,90.00
2018-12-07T05:58:21.492Z,89.00
2018-12-07T06:00:49.914Z,89.10
2018-12-07T06:03:18.391Z,89.10
2018-12-07T06:05:46.875Z,89.00
2018-12-07T06:08:15.291Z,88.80
2018-12-07T06:10:43.759Z,89.10
2018-12-07T06:13:12.185Z,89.30
2018-12-07T06:15:40.639Z,89.50
2018-12-07T06:18:09.063Z,89.50
2018-12-07T06:20:37.524Z,89.90
2018-12-07T06:23:06.011Z,89.70
2018-12-07T06:25:34.476Z,89.80
2018-12-07T06:28:02.883Z,89.60
2018-12-07T06:30:31.341Z,89.70
2018-12-07T06:32:59.975Z,89.60
2018-12-07T06:35:28.414Z,89.50
2018-12-07T06:37:56.875Z,89.20
2018-12-07T06:40:25.347Z,89.20
2018-12-07T06:42:53.797Z,89.30
2018-12-07T06:45:22.271Z,88.90
2018-12-07T06:47:50.729Z,89.00
2018-12-07T06:50:19.155Z,89.50
2018-12-07T06:52:47.628Z,89.40
2018-12-07T06:55:16.094Z,89.20
2018-12-07T06:57:44.512Z,89.30
2018-12-07T07:00:13.002Z,89.70
2018-12-07T07:02:42.003Z,89.70
2018-12-07T07:05:10.432Z,89.20
2018-12-07T07:07:38.915Z,89.70
2018-12-07T07:10:08.149Z,89.60
2018-12-07T07:12:36.567Z,89.60
2018-12-07T07:15:05.860Z,89.50
2018-12-07T07:17:34.288Z,89.30
2018-12-07T07:20:02.933Z,89.50
2018-12-07T07:22:31.397Z,89.50
2018-12-07T07:24:59.871Z,89.30
2018-12-07T07:27:28.292Z,89.30
2018-12-07T07:29:56.836Z,89.40
2018-12-07T07:32:25.276Z,89.90
2018-12-07T07:34:53.746Z,90.10
2018-12-07T07:37:22.267Z,92.80
2018-12-07T07:39:50.729Z,99.90
2018-12-07T07:42:20.247Z,98.50
2018-12-07T07:44:48.703Z,93.10
2018-12-07T07:47:17.116Z,91.10
2018-12-07T07:49:45.711Z,90.30
2018-12-07T07:52:14.128Z,89.30
2018-12-07T07:54:42.534Z,88.20
2018-12-07T07:57:10.983Z,87.20
2018-12-07T07:59:39.435Z,86.80
2018-12-07T08:02:07.916Z,86.10
2018-12-07T08:04:36.356Z,85.80
2018-12-07T08:07:04.953Z,85.20
2018-12-07T08:09:33.420Z,84.80
2018-12-07T08:12:01.843Z,84.90
2018-12-07T08:14:30.313Z,84.70
2018-12-07T08:16:58.756Z,85.00
2018-12-07T08:19:27.253Z,84.70
2018-12-07T08:21:55.671Z,85.10
2018-12-07T08:24:24.123Z,85.00
2018-12-07T08:26:52.607Z,85.00
2018-12-07T08:29:21.044Z,84.70
2018-12-07T08:31:49.508Z,83.30
2018-12-07T08:34:18.075Z,83.40
2018-12-07T08:36:46.506Z,83.20
2018-12-07T08:39:14.954Z,83.40
2018-12-07T08:41:44.534Z,83.60
2018-12-07T08:44:13.123Z,83.50
2018-12-07T08:46:41.703Z,83.50
2018-12-07T08:49:11.028Z,83.60
2018-12-07T08:51:39.505Z,83.70
2018-12-07T08:54:07.984Z,83.60
2018-12-07T08:56:36.508Z,83.50
2018-12-07T08:59:04.960Z,82.90
2018-12-07T09:01:33.524Z,82.50
2018-12-07T09:04:01.984Z,82.50
2018-12-07T09:06:30.416Z,82.60
2018-12-07T09:08:59.419Z,82.70
2018-12-07T09:11:27.859Z,82.30
2018-12-07T09:13:56.308Z,81.80
2018-12-07T09:16:24.784Z,81.80
2018-12-07T09:18:53.209Z,81.80
2018-12-07T09:21:21.671Z,81.70
2018-12-07T09:23:50.143Z,81.40
2018-12-07T09:26:18.660Z,81.30
2018-12-07T09:28:47.163Z,80.90
2018-12-07T09:31:15.631Z,79.50
2018-12-07T09:33:44.061Z,79.10
2018-12-07T09:36:12.525Z,79.30
2018-12-07T09:38:40.967Z,79.40
2018-12-07T09:41:09.439Z,79.30
2018-12-07T09:43:37.856Z,79.00
2018-12-07T09:46:06.320Z,78.60
2018-12-07T09:48:34.780Z,78.40
2018-12-07T09:51:03.272Z,78.70
2018-12-07T09:53:31.760Z,78.90
2018-12-07T09:56:00.183Z,78.90
2018-12-07T09:58:28.667Z,78.20
2018-12-07T10:00:57.144Z,78.50
2018-12-07T10:03:25.572Z,77.80
2018-12-07T10:05:53.996Z,77.80
2018-12-07T10:08:22.468Z,78.20
2018-12-07T10:10:51.028Z,78.90
2018-12-07T10:13:19.452Z,78.30
2018-12-07T10:15:48.134Z,78.10
2018-12-07T10:18:16.599Z,78.70
2018-12-07T10:20:45.026Z,78.60
2018-12-07T10:23:13.491Z,78.10
2018-12-07T10:25:41.972Z,78.20
2018-12-07T10:28:10.388Z,76.80
2018-12-07T10:30:38.843Z,77.00
2018-12-07T10:33:07.280Z,75.70
2018-12-07T10:35:35.739Z,76.10
2018-12-07T10:38:04.260Z,76.10
2018-12-07T10:40:32.830Z,76.00
2018-12-07T10:43:01.267Z,77.10
2018-12-07T10:45:29.791Z,76.00
2018-12-07T10:47:58.331Z,76.00
2018-12-07T10:50:26.793Z,76.00
2018-12-07T10:52:55.218Z,75.80
2018-12-07T10:55:23.696Z,75.60
2018-12-07T10:57:52.188Z,75.40
2018-12-07T11:00:27.151Z,75.10
2018-12-07T11:03:01.101Z,74.70
2018-12-07T11:05:34.904Z,74.50
2018-12-07T11:08:08.683Z,74.90
2018-12-07T11:10:42.601Z,73.90
2018-12-07T11:13:16.303Z,73.20
2018-12-07T11:15:50.203Z,73.00
2018-12-07T11:18:23.868Z,72.40
2018-12-07T11:20:57.432Z,72.20
2018-12-07T11:23:31.440Z,72.00
2018-12-07T11:26:05.091Z,72.40
2018-12-07T11:28:38.839Z,72.10
2018-12-07T11:32:15.904Z,72.20
2018-12-07T11:34:47.792Z,72.10
2018-12-07T11:37:16.227Z,72.50
2018-12-07T11:39:44.697Z,72.80
2018-12-07T11:42:13.186Z,72.30
2018-12-07T11:44:41.623Z,71.90
2018-12-07T11:47:10.077Z,71.20
2018-12-07T11:49:38.516Z,72.10
2018-12-07T11:52:06.981Z,72.10
2018-12-07T11:54:35.399Z,72.10
2018-12-07T11:57:03.965Z,72.00
2018-12-07T11:59:32.431Z,72.10
2018-12-07T12:02:01.040Z,71.80
2018-12-07T12:04:29.463Z,71.80
2018-12-07T12:06:57.935Z,71.80
2018-12-07T12:09:26.399Z,72.50
2018-12-07T12:11:54.869Z,72.60
2018-12-07T12:14:23.331Z,72.70
2018-12-07T12:16:51.867Z,72.80
2018-12-07T12:19:20.323Z,73.20
2018-12-07T12:21:48.799Z,72.90
2018-12-07T12:24:17.242Z,73.00
2018-12-07T12:26:45.769Z,72.80
2018-12-07T12:29:14.245Z,72.70
2018-12-07T12:31:43.075Z,71.90
2018-12-07T12:34:11.540Z,71.70
2018-12-07T12:36:39.959Z,71.90
2018-12-07T12:39:08.432Z,72.70
2018-12-07T12:41:36.869Z,71.80
2018-12-07T12:44:05.320Z,71.60
2018-12-07T12:46:33.784Z,69.80
2018-12-07T12:49:02.205Z,69.80
2018-12-07T12:51:30.642Z,69.10
2018-12-07T12:53:59.144Z,69.80
2018-12-07T12:56:27.637Z,68.40
2018-12-07T12:58:56.082Z,67.60
2018-12-07T13:01:24.501Z,67.40
2018-12-07T13:03:53.060Z,67.10
2018-12-07T13:06:21.531Z,67.00
2018-12-07T13:08:49.957Z,65.70
2018-12-07T13:11:18.403Z,64.10
2018-12-07T13:13:46.892Z,63.10
2018-12-07T13:16:15.320Z,62.70
2018-12-07T13:18:43.820Z,62.50
2018-12-07T13:21:12.291Z,63.00
2018-12-07T13:23:40.748Z,63.50
2018-12-07T13:26:09.202Z,64.10
2018-12-07T13:28:37.651Z,64.30
2018-12-07T13:31:06.082Z,64.60
2018-12-07T13:33:34.528Z,60.50
2018-12-07T13:36:03.689Z,58.40
2018-12-07T13:38:32.144Z,58.10
2018-12-07T13:41:00.623Z,56.80
2018-12-07T13:43:29.114Z,55.90
2018-12-07T13:45:57.616Z,56.30
2018-12-07T13:48:26.156Z,57.50
2018-12-07T13:50:54.920Z,59.30
2018-12-07T13:53:23.706Z,60.50
2018-12-07T13:55:52.920Z,60.60
2018-12-07T13:58:21.969Z,62.70
2018-12-07T14:00:51.585Z,64.10
2018-12-07T14:03:20.109Z,66.10
2018-12-07T14:05:48.720Z,68.00
2018-12-07T14:08:18.834Z,69.10
2018-12-07T14:10:48.117Z,70.90
2018-12-07T14:13:16.574Z,70.50
2018-12-07T14:15:45.254Z,70.60
2018-12-07T14:18:14.474Z,70.90
2018-12-07T14:20:43.694Z,71.40
2018-12-07T14:23:12.804Z,71.70
2018-12-07T14:25:41.873Z,72.90
2018-12-07T14:28:11.031Z,72.50
2018-12-07T14:30:40.327Z,73.80
2018-12-07T14:33:08.875Z,74.50
2018-12-07T14:35:37.993Z,75.10
2018-12-07T14:38:07.119Z,75.50
2018-12-07T14:40:35.796Z,75.80
2018-12-07T14:43:04.996Z,75.90
2018-12-07T14:45:33.656Z,76.00
2018-12-07T14:48:02.974Z,76.00
2018-12-07T14:50:32.097Z,76.30
2018-12-07T14:53:01.452Z,76.30
2018-12-07T14:55:30.493Z,76.60
2018-12-07T14:57:58.913Z,76.30
2018-12-07T15:00:27.393Z,76.50
2018-12-07T15:02:56.005Z,76.60
2018-12-07T15:05:25.143Z,76.90
2018-12-07T15:07:53.844Z,76.50
2018-12-07T15:10:22.847Z,76.50
2018-12-07T15:12:51.463Z,76.50
2018-12-07T15:15:20.792Z,77.00
2018-12-07T15:17:49.940Z,77.00
2018-12-07T15:20:18.625Z,76.90
2018-12-07T15:22:47.379Z,77.10
2018-12-07T15:25:16.526Z,76.50
2018-12-07T15:27:45.600Z,76.50
2018-12-07T15:30:14.271Z,76.40
2018-12-07T15:32:42.759Z,76.90
2018-12-07T15:35:11.574Z,77.10
2018-12-07T15:37:40.150Z,78.40
2018-12-07T15:40:10.328Z,78.00
2018-12-07T15:42:39.873Z,78.70
2018-12-07T15:45:09.497Z,78.80
2018-12-07T15:47:39.798Z,79.50
2018-12-07T15:50:09.063Z,79.40
2018-12-07T15:52:37.801Z,79.70
2018-12-07T15:55:07.540Z,80.00
2018-12-07T15:57:36.743Z,80.40
2018-12-07T16:00:06.703Z,79.90
2018-12-07T16:02:35.238Z,78.40
2018-12-07T16:05:04.985Z,76.50
2018-12-07T16:07:34.241Z,75.80
2018-12-07T16:10:03.967Z,75.80
2018-12-07T16:12:32.639Z,74.80
2018-12-07T16:15:02.743Z,73.60
2018-12-07T16:17:31.569Z,73.10
2018-12-07T16:20:00.776Z,73.10
2018-12-07T16:22:29.421Z,72.60
2018-12-07T16:24:58.722Z,72.70
2018-12-07T16:27:28.093Z,72.30
2018-12-07T16:29:57.435Z,71.60
2018-12-07T16:32:26.073Z,71.40
2018-12-07T16:34:55.251Z,71.10
2018-12-07T16:37:23.962Z,70.60
2018-12-07T16:39:53.102Z,70.90
2018-12-07T16:42:21.873Z,71.80
2018-12-07T16:44:51.181Z,72.60
2018-12-07T16:47:20.291Z,73.30
2018-12-07T16:49:50.114Z,75.10
2018-12-07T16:52:19.278Z,74.90
2018-12-07T16:54:48.041Z,75.40
2018-12-07T16:57:16.819Z,75.60
2018-12-07T16:59:45.979Z,76.10
2018-12-07T17:02:14.692Z,76.20
2018-12-07T17:04:43.279Z,76.60
2018-12-07T17:07:11.888Z,77.20
2018-12-07T17:09:40.422Z,77.50
2018-12-07T17:12:09.870Z,76.90
2018-12-07T17:14:39.975Z,76.70
2018-12-07T17:17:08.660Z,76.90
2018-12-07T17:19:37.327Z,76.60
2018-12-07T17:22:06.681Z,76.10
2018-12-07T17:24:35.806Z,76.00
2018-12-07T17:27:04.986Z,75.00
2018-12-07T17:29:33.832Z,75.20
2018-12-07T17:32:02.421Z,75.10
2018-12-07T17:34:31.877Z,75.40
2018-12-07T17:37:01.112Z,75.20
2018-12-07T17:39:30.274Z,75.50
2018-12-07T17:41:58.792Z,75.10
2018-12-07T17:44:27.417Z,75.00
2018-12-07T17:46:55.995Z,74.60
2018-12-07T17:49:24.636Z,75.40
2018-12-07T17:51:53.680Z,74.90
2018-12-07T17:54:24.233Z,74.80
2018-12-07T17:56:54.084Z,74.40
2018-12-07T17:59:23.256Z,75.00
2018-12-07T18:01:52.427Z,74.50
2018-12-07T18:04:20.910Z,74.50
2018-12-07T18:06:49.689Z,74.90
2018-12-07T18:09:18.793Z,74.40
2018-12-07T18:11:48.386Z,75.40
2018-12-07T18:14:16.824Z,75.60
2018-12-07T18:16:45.443Z,75.60
2018-12-07T18:19:14.537Z,75.90
2018-12-07T18:21:43.157Z,76.40
2018-12-07T18:24:12.551Z,76.50
2018-12-07T18:26:41.736Z,76.70
2018-12-07T18:29:10.497Z,76.90
2018-12-07T18:31:39.592Z,77.30
2018-12-07T18:34:08.236Z,77.50
2018-12-07T18:36:36.755Z,77.70
2018-12-07T18:39:07.969Z,77.40
2018-12-07T18:41:36.700Z,77.50
2018-12-07T18:44:05.972Z,77.90
2018-12-07T18:46:35.322Z,78.00
2018-12-07T18:49:04.755Z,78.10
2018-12-07T18:51:33.354Z,78.50
2018-12-07T18:54:02.660Z,78.70
2018-12-07T18:56:31.701Z,79.10
2018-12-07T18:59:00.203Z,79.00
2018-12-07T19:01:28.992Z,79.40
2018-12-07T19:03:58.250Z,79.80
2018-12-07T19:06:27.683Z,80.00
2018-12-07T19:08:56.380Z,79.80
2018-12-07T19:11:25.504Z,79.80
2018-12-07T19:13:56.709Z,80.10
2018-12-07T19:16:25.498Z,80.20
2018-12-07T19:18:54.692Z,80.10
2018-12-07T19:21:23.331Z,80.20
2018-12-07T19:23:53.504Z,80.30
2018-12-07T19:26:22.796Z,80.10
2018-12-07T19:28:52.173Z,80.20
2018-12-07T19:31:21.346Z,80.20
2018-12-07T19:33:50.766Z,80.20
2018-12-07T19:36:19.621Z,80.00
2018-12-07T19:38:48.883Z,80.00
2018-12-07T19:41:18.071Z,79.80
2018-12-07T19:43:46.674Z,79.70
2018-12-07T19:46:15.986Z,80.10
2018-12-07T19:48:45.446Z,81.00
2018-12-07T19:51:15.082Z,80.10
2018-12-07T19:53:44.336Z,80.20
2018-12-07T19:56:12.751Z,80.20
2018-12-07T19:58:41.408Z,79.90
2018-12-07T20:01:10.283Z,79.60
2018-12-07T20:03:39.497Z,79.80
2018-12-07T20:06:08.775Z,80.40
2018-12-07T20:08:38.086Z,80.80
2018-12-07T20:11:07.019Z,81.00
2018-12-07T20:13:35.743Z,81.00
2018-12-07T20:16:05.496Z,80.90
2018-12-07T20:18:35.202Z,80.80
2018-12-07T20:21:03.921Z,80.80
2018-12-07T20:23:32.396Z,80.80
2018-12-07T20:26:01.172Z,80.80
2018-12-07T20:28:30.569Z,80.90
2018-12-07T20:31:00.818Z,80.60
2018-12-07T20:33:29.384Z,80.80
2018-12-07T20:35:58.166Z,80.90
2018-12-07T20:38:27.317Z,81.00
2018-12-07T20:40:56.394Z,80.70
2018-12-07T20:43:25.970Z,80.70
2018-12-07T20:45:54.638Z,80.70
2018-12-07T20:48:23.822Z,80.70
2018-12-07T20:50:53.452Z,81.10
2018-12-07T20:53:22.227Z,81.90
2018-12-07T20:55:51.158Z,81.10
2018-12-07T20:58:19.782Z,81.10
2018-12-07T21:00:48.877Z,81.40
2018-12-07T21:03:17.609Z,82.00
2018-12-07T21:08:14.201Z,82.10
2018-12-07T21:11:05.898Z,82.40
2018-12-07T21:14:45.792Z,81.90
2018-12-07T21:17:21.916Z,81.90
2018-12-07T21:19:53.478Z,82.20
2018-12-07T21:22:22.725Z,82.60
2018-12-07T21:24:51.988Z,82.60
2018-12-07T21:27:21.207Z,82.60
2018-12-07T21:31:13.258Z,82.50
2018-12-07T21:33:57.851Z,82.60
2018-12-07T21:36:45.198Z,82.50
2018-12-07T21:39:23.610Z,82.50
2018-12-07T21:41:52.813Z,82.50
2018-12-07T21:44:21.912Z,82.20
2018-12-07T21:46:50.495Z,82.40
2018-12-07T21:49:20.063Z,82.20
2018-12-07T21:52:31.019Z,82.40
2018-12-07T21:54:59.628Z,82.30
2018-12-07T21:57:28.922Z,82.30
2018-12-07T21:59:58.056Z,82.50
2018-12-07T22:02:27.658Z,82.50
2018-12-07T22:04:56.210Z,82.80
2018-12-07T22:07:24.871Z,82.80
2018-12-07T22:09:53.965Z,82.80
2018-12-07T22:12:22.486Z,83.10
2018-12-07T22:14:51.027Z,83.30
2018-12-07T22:17:19.796Z,83.20
2018-12-07T22:19:48.951Z,83.20
2018-12-07T22:22:17.648Z,84.20
2018-12-07T22:24:47.012Z,83.50
2018-12-07T22:27:16.103Z,83.50
2018-12-07T22:29:44.666Z,82.80
2018-12-07T22:32:14.126Z,82.70
2018-12-07T22:34:43.537Z,82.90
2018-12-07T22:37:12.749Z,82.90
2018-12-07T22:39:42.003Z,83.20
2018-12-07T22:42:11.282Z,83.20
2018-12-07T22:44:40.513Z,83.30
2018-12-07T22:47:10.395Z,83.30
2018-12-07T22:49:38.911Z,83.50
2018-12-07T22:52:07.387Z,83.70
2018-12-07T22:54:35.817Z,83.60
2018-12-07T22:57:04.239Z,83.50
2018-12-07T22:59:33.558Z,83.60
2018-12-07T23:02:02.151Z,83.40
2018-12-07T23:04:30.616Z,83.30
2018-12-07T23:06:59.101Z,83.70
2018-12-07T23:09:28.655Z,83.60
2018-12-07T23:11:57.095Z,83.60
2018-12-07T23:14:25.566Z,83.60
2018-12-07T23:16:54.004Z,83.90
2018-12-07T23:19:22.430Z,84.10
2018-12-07T23:21:50.909Z,84.20
2018-12-07T23:24:19.338Z,84.30
2018-12-07T23:26:47.812Z,84.30
2018-12-07T23:29:23.195Z,84.30
2018-12-07T23:31:51.688Z,84.30
2018-12-07T23:34:20.168Z,85.70
2018-12-07T23:36:48.584Z,87.00
2018-12-07T23:39:17.035Z,87.00
2018-12-07T23:41:45.512Z,87.70
2018-12-07T23:44:13.967Z,87.00
2018-12-07T23:46:42.464Z,86.60
2018-12-07T23:49:11.110Z,86.30
2018-12-07T23:51:40.191Z,85.80
2018-12-07T23:54:08.655Z,85.30
2018-12-07T23:56:37.107Z,85.50
2018-12-07T23:59:05.572Z,86.00
